createdAt,value
2023-01-30T00:00:10.858Z,0.00
2023-01-30T00:01:10.810Z,0.00
2023-01-30T00:02:11.381Z,0.00
2023-01-30T00:03:10.770Z,0.00
2023-01-30T00:04:10.867Z,0.00
2023-01-30T00:05:10.846Z,0.00
2023-01-30T00:06:10.767Z,0.00
2023-01-30T00:07:10.784Z,0.00
2023-01-30T00:08:10.799Z,0.00
2023-01-30T00:09:10.812Z,0.00
2023-01-30T00:10:10.738Z,0.00
2023-01-30T00:11:10.731Z,0.00
2023-01-30T00:12:10.735Z,0.00
2023-01-30T00:13:10.737Z,0.00
2023-01-30T00:14:10.684Z,0.00
2023-01-30T00:15:10.731Z,0.00
2023-01-30T00:16:10.751Z,0.00
2023-01-30T00:17:10.531Z,0.00
2023-01-30T00:18:10.675Z,0.00
2023-01-30T00:19:10.635Z,0.00
2023-01-30T00:20:10.661Z,0.00
2023-01-30T00:21:10.710Z,0.00
2023-01-30T00:22:10.670Z,0.00
2023-01-30T00:23:10.633Z,0.00
2023-01-30T00:24:10.506Z,0.00
2023-01-30T00:25:10.609Z,0.00
2023-01-30T00:26:10.663Z,0.00
2023-01-30T00:27:10.576Z,0.00
2023-01-30T00:28:10.573Z,0.00
2023-01-30T00:29:10.529Z,0.00
2023-01-30T00:30:10.593Z,0.00
2023-01-30T00:31:10.532Z,0.00
2023-01-30T00:32:10.582Z,0.00
2023-01-30T00:33:10.575Z,0.00
2023-01-30T00:34:10.395Z,0.00
2023-01-30T00:35:10.536Z,0.00
2023-01-30T00:36:10.416Z,0.00
2023-01-30T00:37:10.526Z,0.00
2023-01-30T00:38:10.575Z,0.00
2023-01-30T00:39:10.477Z,0.00
2023-01-30T00:40:10.450Z,0.00
2023-01-30T00:41:10.234Z,0.00
2023-01-30T00:42:10.480Z,0.00
2023-01-30T00:44:10.499Z,0.00
2023-01-30T00:45:10.398Z,0.00
2023-01-30T00:46:10.399Z,0.00
2023-01-30T00:47:10.347Z,0.00
2023-01-30T00:48:10.313Z,0.00
2023-01-30T00:49:10.447Z,0.00
2023-01-30T00:50:10.410Z,0.00
2023-01-30T00:51:10.361Z,0.00
2023-01-30T00:52:10.227Z,0.00
2023-01-30T00:53:10.141Z,0.00
2023-01-30T00:54:10.387Z,0.00
2023-01-30T00:55:10.343Z,0.00
2023-01-30T00:56:10.290Z,0.00
2023-01-30T00:57:10.266Z,0.00
2023-01-30T00:58:10.227Z,0.00
2023-01-30T00:59:10.216Z,0.00
2023-01-30T01:00:10.373Z,0.00
2023-01-30T01:01:10.246Z,0.00
2023-01-30T01:02:10.342Z,0.00
2023-01-30T01:03:10.229Z,0.00
2023-01-30T01:04:10.212Z,0.00
2023-01-30T01:05:10.053Z,0.00
2023-01-30T01:06:10.159Z,0.00
2023-01-30T01:07:10.161Z,0.00
2023-01-30T01:08:10.165Z,0.00
2023-01-30T01:09:10.182Z,0.00
2023-01-30T01:10:10.105Z,0.00
2023-01-30T01:11:10.194Z,0.00
2023-01-30T01:12:10.197Z,0.00
2023-01-30T01:13:10.103Z,0.00
2023-01-30T01:14:10.173Z,0.00
2023-01-30T01:15:10.148Z,0.00
2023-01-30T01:16:10.087Z,0.00
2023-01-30T01:17:10.056Z,0.00
2023-01-30T01:18:10.119Z,0.00
2023-01-30T01:19:10.018Z,0.00
2023-01-30T01:20:10.081Z,0.00
2023-01-30T01:21:10.051Z,0.00
2023-01-30T01:22:10.050Z,0.00
2023-01-30T01:23:09.965Z,0.00
2023-01-30T01:24:09.935Z,0.00
2023-01-30T01:25:09.954Z,0.00
2023-01-30T01:26:09.836Z,0.00
2023-01-30T01:27:09.989Z,0.00
2023-01-30T01:28:09.921Z,0.00
2023-01-30T01:29:09.949Z,0.00
2023-01-30T01:30:10.015Z,0.00
2023-01-30T01:31:10.081Z,0.00
2023-01-30T01:32:10.094Z,0.00
2023-01-30T01:33:09.798Z,0.00
2023-01-30T01:34:09.884Z,0.00
2023-01-30T01:35:09.915Z,0.00
2023-01-30T01:36:09.918Z,0.00
2023-01-30T01:37:09.879Z,0.00
2023-01-30T01:38:09.980Z,0.00
2023-01-30T01:39:09.844Z,0.00
2023-01-30T01:40:09.948Z,0.00
2023-01-30T01:41:09.808Z,0.00
2023-01-30T01:42:10.641Z,0.00
2023-01-30T01:43:09.901Z,0.00
2023-01-30T01:44:09.764Z,0.00
2023-01-30T01:45:09.744Z,0.00
2023-01-30T01:46:09.758Z,0.00
2023-01-30T01:47:09.746Z,0.00
2023-01-30T01:48:09.728Z,0.00
2023-01-30T01:49:09.804Z,0.00
2023-01-30T01:50:09.792Z,0.00
2023-01-30T01:51:09.767Z,0.00
2023-01-30T01:52:09.753Z,0.00
2023-01-30T01:53:09.726Z,0.00
2023-01-30T01:54:09.707Z,0.00
2023-01-30T01:55:09.840Z,0.00
2023-01-30T01:56:09.653Z,0.00
2023-01-30T01:57:09.646Z,0.00
2023-01-30T01:58:09.618Z,0.00
2023-01-30T01:59:09.596Z,0.00
2023-01-30T02:00:09.598Z,0.00
2023-01-30T02:01:09.760Z,0.00
2023-01-30T02:02:09.728Z,0.00
2023-01-30T02:03:09.606Z,0.00
2023-01-30T02:04:09.631Z,0.00
2023-01-30T02:05:09.763Z,0.00
2023-01-30T02:06:09.605Z,0.00
2023-01-30T02:07:09.528Z,0.00
2023-01-30T02:08:09.677Z,0.00
2023-01-30T02:09:09.609Z,0.00
2023-01-30T02:10:09.465Z,0.00
2023-01-30T02:11:09.554Z,0.00
2023-01-30T02:12:09.543Z,0.00
2023-01-30T02:13:09.479Z,0.00
2023-01-30T02:14:09.566Z,0.00
2023-01-30T02:15:09.496Z,0.00
2023-01-30T02:16:09.576Z,0.00
2023-01-30T02:17:09.507Z,0.00
2023-01-30T02:18:09.592Z,0.00
2023-01-30T02:19:09.513Z,0.00
2023-01-30T02:20:09.517Z,0.00
2023-01-30T02:21:09.498Z,0.00
2023-01-30T02:22:09.570Z,0.00
2023-01-30T02:23:09.478Z,0.00
2023-01-30T02:24:09.455Z,0.00
2023-01-30T02:25:09.428Z,0.00
2023-01-30T02:26:09.442Z,0.00
2023-01-30T02:27:09.398Z,0.00
2023-01-30T02:28:09.456Z,0.00
2023-01-30T02:29:09.387Z,0.00
2023-01-30T02:30:09.343Z,0.00
2023-01-30T02:31:09.451Z,0.00
2023-01-30T02:32:09.341Z,0.00
2023-01-30T02:33:09.328Z,0.00
2023-01-30T02:34:09.407Z,0.00
2023-01-30T02:35:09.296Z,0.00
2023-01-30T02:36:09.283Z,0.00
2023-01-30T02:37:09.344Z,0.00
2023-01-30T02:38:09.329Z,0.00
2023-01-30T02:39:09.406Z,0.00
2023-01-30T02:40:09.325Z,0.00
2023-01-30T02:41:09.239Z,0.00
2023-01-30T02:42:09.201Z,0.00
2023-01-30T02:43:09.224Z,0.00
2023-01-30T02:44:09.210Z,0.00
2023-01-30T02:45:09.278Z,0.00
2023-01-30T02:46:09.436Z,0.00
2023-01-30T02:47:09.247Z,0.00
2023-01-30T02:48:09.149Z,0.00
2023-01-30T02:49:09.224Z,0.00
2023-01-30T02:50:09.208Z,0.00
2023-01-30T02:51:09.186Z,0.00
2023-01-30T02:52:09.181Z,0.00
2023-01-30T02:53:09.154Z,0.00
2023-01-30T02:54:09.135Z,0.00
2023-01-30T02:55:09.203Z,0.00
2023-01-30T02:56:09.107Z,0.00
2023-01-30T02:57:09.098Z,0.00
2023-01-30T02:58:09.089Z,0.00
2023-01-30T02:59:09.073Z,0.00
2023-01-30T03:00:09.063Z,0.00
2023-01-30T03:01:09.241Z,0.00
2023-01-30T03:02:09.129Z,0.00
2023-01-30T03:03:09.088Z,0.00
2023-01-30T03:04:09.161Z,0.00
2023-01-30T03:05:09.087Z,0.00
2023-01-30T03:06:09.025Z,0.00
2023-01-30T03:07:08.882Z,0.00
2023-01-30T03:08:08.871Z,0.00
2023-01-30T03:09:08.863Z,0.00
2023-01-30T03:10:09.105Z,0.00
2023-01-30T03:11:09.017Z,0.00
2023-01-30T03:12:09.029Z,0.00
2023-01-30T03:13:09.033Z,0.00
2023-01-30T03:14:08.947Z,0.00
2023-01-30T03:15:08.924Z,0.00
2023-01-30T03:16:08.927Z,0.00
2023-01-30T03:17:08.933Z,0.00
2023-01-30T03:18:08.973Z,0.00
2023-01-30T03:19:08.981Z,0.00
2023-01-30T03:20:08.905Z,0.00
2023-01-30T03:21:08.911Z,0.00
2023-01-30T03:22:08.926Z,0.00
2023-01-30T03:23:09.013Z,0.00
2023-01-30T03:24:09.009Z,0.00
2023-01-30T03:25:08.932Z,0.00
2023-01-30T03:26:08.856Z,0.00
2023-01-30T03:27:08.865Z,0.00
2023-01-30T03:28:08.874Z,0.00
2023-01-30T03:29:08.882Z,0.00
2023-01-30T03:30:08.884Z,0.00
2023-01-30T03:31:08.897Z,0.00
2023-01-30T03:32:08.832Z,0.00
2023-01-30T03:33:08.848Z,0.00
2023-01-30T03:34:08.850Z,0.00
2023-01-30T03:35:08.706Z,0.00
2023-01-30T03:36:08.759Z,0.00
2023-01-30T03:37:08.826Z,0.00
2023-01-30T03:38:08.738Z,0.00
2023-01-30T03:39:08.744Z,0.00
2023-01-30T03:40:08.816Z,0.00
2023-01-30T03:41:08.659Z,0.00
2023-01-30T03:42:08.750Z,0.00
2023-01-30T03:43:08.685Z,0.00
2023-01-30T03:44:08.677Z,0.00
2023-01-30T03:45:08.763Z,0.00
2023-01-30T03:46:08.797Z,0.00
2023-01-30T03:47:08.686Z,0.00
2023-01-30T03:48:08.450Z,0.00
2023-01-30T03:49:08.659Z,0.00
2023-01-30T03:50:08.751Z,0.00
2023-01-30T03:51:08.592Z,0.00
2023-01-30T03:52:08.681Z,0.00
2023-01-30T03:53:08.571Z,0.00
2023-01-30T03:54:08.588Z,0.00
2023-01-30T03:55:08.578Z,0.00
2023-01-30T03:56:08.722Z,0.00
2023-01-30T03:57:08.566Z,0.00
2023-01-30T03:58:08.541Z,0.00
2023-01-30T03:59:08.577Z,0.00
2023-01-30T04:00:08.554Z,0.00
2023-01-30T04:01:08.636Z,0.00
2023-01-30T04:02:08.545Z,0.00
2023-01-30T04:03:08.514Z,0.00
2023-01-30T04:04:08.544Z,0.00
2023-01-30T04:05:08.483Z,0.00
2023-01-30T04:06:08.448Z,0.00
2023-01-30T04:07:08.492Z,0.00
2023-01-30T04:08:08.541Z,0.00
2023-01-30T04:09:08.453Z,0.00
2023-01-30T04:10:08.543Z,0.00
2023-01-30T04:11:08.384Z,0.00
2023-01-30T04:12:08.398Z,0.00
2023-01-30T04:13:08.393Z,0.00
2023-01-30T04:14:08.471Z,0.00
2023-01-30T04:15:08.408Z,0.00
2023-01-30T04:16:08.407Z,0.00
2023-01-30T04:17:08.404Z,0.00
2023-01-30T04:18:08.316Z,0.00
2023-01-30T04:19:08.394Z,0.00
2023-01-30T04:20:08.223Z,0.00
2023-01-30T04:21:08.294Z,0.00
2023-01-30T04:22:08.207Z,0.00
2023-01-30T04:23:08.187Z,0.00
2023-01-30T04:24:08.284Z,0.00
2023-01-30T04:25:08.409Z,0.00
2023-01-30T04:26:08.068Z,0.00
2023-01-30T04:27:08.262Z,0.00
2023-01-30T04:28:08.218Z,0.00
2023-01-30T04:29:08.314Z,0.00
2023-01-30T04:30:08.189Z,0.00
2023-01-30T04:31:08.234Z,0.00
2023-01-30T04:32:08.195Z,0.00
2023-01-30T04:33:08.175Z,0.00
2023-01-30T04:34:08.260Z,0.00
2023-01-30T04:35:08.173Z,0.00
2023-01-30T04:36:08.250Z,0.00
2023-01-30T04:37:08.175Z,0.00
2023-01-30T04:38:08.106Z,0.00
2023-01-30T04:39:08.208Z,0.00
2023-01-30T04:40:08.226Z,0.00
2023-01-30T04:41:08.161Z,0.00
2023-01-30T04:42:07.999Z,0.00
2023-01-30T04:43:08.171Z,0.00
2023-01-30T04:44:08.043Z,0.00
2023-01-30T04:45:08.056Z,0.00
2023-01-30T04:46:08.064Z,0.00
2023-01-30T04:47:08.080Z,0.00
2023-01-30T04:48:08.072Z,0.00
2023-01-30T04:49:08.074Z,0.00
2023-01-30T04:50:07.950Z,0.00
2023-01-30T04:51:07.977Z,0.00
2023-01-30T04:52:08.109Z,0.00
2023-01-30T04:53:07.942Z,0.00
2023-01-30T04:54:07.890Z,0.00
2023-01-30T04:55:07.983Z,0.00
2023-01-30T04:56:07.928Z,0.00
2023-01-30T04:57:07.938Z,0.00
2023-01-30T04:58:07.855Z,0.00
2023-01-30T04:59:07.857Z,0.00
2023-01-30T05:00:07.731Z,0.00
2023-01-30T05:01:07.910Z,0.00
2023-01-30T05:02:07.883Z,0.00
2023-01-30T05:03:07.859Z,0.00
2023-01-30T05:04:07.808Z,0.00
2023-01-30T05:05:07.687Z,1.00
2023-01-30T05:06:07.935Z,0.00
2023-01-30T05:07:07.838Z,0.00
2023-01-30T05:08:07.851Z,0.00
2023-01-30T05:09:07.712Z,1.00
2023-01-30T05:10:07.746Z,0.00
2023-01-30T05:11:07.758Z,0.00
2023-01-30T05:12:07.855Z,0.00
2023-01-30T05:13:07.723Z,0.00
2023-01-30T05:14:07.729Z,0.00
2023-01-30T05:15:07.646Z,0.00
2023-01-30T05:16:07.699Z,0.00
2023-01-30T05:17:07.822Z,1.00
2023-01-30T05:18:07.677Z,0.00
2023-01-30T05:19:07.683Z,1.00
2023-01-30T05:20:07.748Z,0.00
2023-01-30T05:21:07.682Z,1.00
2023-01-30T05:22:07.705Z,0.00
2023-01-30T05:23:07.777Z,0.00
2023-01-30T05:24:07.449Z,0.00
2023-01-30T05:25:07.656Z,0.00
2023-01-30T05:26:07.689Z,0.00
2023-01-30T05:27:07.546Z,1.00
2023-01-30T05:28:07.423Z,0.00
2023-01-30T05:29:07.457Z,0.00
2023-01-30T05:30:07.559Z,1.00
2023-01-30T05:31:07.700Z,0.00
2023-01-30T05:32:07.395Z,0.00
2023-01-30T05:33:07.603Z,0.00
2023-01-30T05:34:07.623Z,0.00
2023-01-30T05:35:07.579Z,0.00
2023-01-30T05:36:07.377Z,0.00
2023-01-30T05:37:07.292Z,1.00
2023-01-30T05:38:07.462Z,0.00
2023-01-30T05:39:07.521Z,0.00
2023-01-30T05:40:07.348Z,0.00
2023-01-30T05:41:07.425Z,0.00
2023-01-30T05:42:07.301Z,0.00
2023-01-30T05:43:07.279Z,0.00
2023-01-30T05:44:07.309Z,0.00
2023-01-30T05:45:07.543Z,0.00
2023-01-30T05:46:07.380Z,0.00
2023-01-30T05:47:07.422Z,0.00
2023-01-30T05:48:07.295Z,0.00
2023-01-30T05:49:07.197Z,0.00
2023-01-30T05:50:07.356Z,0.00
2023-01-30T05:51:07.478Z,0.00
2023-01-30T05:52:07.401Z,0.00
2023-01-30T05:53:07.111Z,1.00
2023-01-30T05:54:07.227Z,0.00
2023-01-30T05:55:07.344Z,0.00
2023-01-30T05:56:07.328Z,0.00
2023-01-30T05:57:07.095Z,1.00
2023-01-30T05:58:07.103Z,0.00
2023-01-30T05:59:07.171Z,0.00
2023-01-30T06:00:07.083Z,0.00
2023-01-30T06:01:07.216Z,0.00
2023-01-30T06:02:07.078Z,0.00
2023-01-30T06:03:07.215Z,0.00
2023-01-30T06:04:07.257Z,0.00
2023-01-30T06:05:07.265Z,0.00
2023-01-30T06:06:07.232Z,0.00
2023-01-30T06:07:07.031Z,0.00
2023-01-30T06:08:07.211Z,0.00
2023-01-30T06:09:07.129Z,0.00
2023-01-30T06:10:07.089Z,0.00
2023-01-30T06:11:07.267Z,0.00
2023-01-30T06:12:07.278Z,0.00
2023-01-30T06:13:07.116Z,0.00
2023-01-30T06:14:07.119Z,0.00
2023-01-30T06:15:07.108Z,0.00
2023-01-30T06:16:07.101Z,0.00
2023-01-30T06:17:07.237Z,0.00
2023-01-30T06:18:07.107Z,0.00
2023-01-30T06:19:07.097Z,0.00
2023-01-30T06:20:07.105Z,0.00
2023-01-30T06:21:07.029Z,0.00
2023-01-30T06:22:07.042Z,0.00
2023-01-30T06:23:07.127Z,0.00
2023-01-30T06:24:07.050Z,0.00
2023-01-30T06:25:06.814Z,0.00
2023-01-30T06:26:09.132Z,0.00
2023-01-30T06:27:06.825Z,0.00
2023-01-30T06:28:07.050Z,0.00
2023-01-30T06:29:06.902Z,0.00
2023-01-30T06:30:06.803Z,0.00
2023-01-30T06:31:07.027Z,1.00
2023-01-30T06:32:06.854Z,0.00
2023-01-30T06:33:06.846Z,0.00
2023-01-30T06:34:07.026Z,0.00
2023-01-30T06:35:06.891Z,0.00
2023-01-30T06:36:06.779Z,1.00
2023-01-30T06:37:06.907Z,0.00
2023-01-30T06:38:06.812Z,0.00
2023-01-30T06:39:06.951Z,0.00
2023-01-30T06:40:06.833Z,1.00
2023-01-30T06:41:06.784Z,1.00
2023-01-30T06:42:07.347Z,1.00
2023-01-30T06:43:06.584Z,1.00
2023-01-30T06:44:06.688Z,1.00
2023-01-30T06:45:06.597Z,1.00
2023-01-30T06:46:06.624Z,2.00
2023-01-30T06:47:06.906Z,0.00
2023-01-30T06:48:06.713Z,2.00
2023-01-30T06:49:06.538Z,2.00
2023-01-30T06:50:06.633Z,1.00
2023-01-30T06:51:06.763Z,8.00
2023-01-30T06:52:06.657Z,7.00
2023-01-30T06:53:06.501Z,5.00
2023-01-30T06:54:06.452Z,5.00
2023-01-30T06:55:06.630Z,6.00
2023-01-30T06:56:06.621Z,8.00
2023-01-30T06:57:06.734Z,17.00
2023-01-30T06:58:06.607Z,11.00
2023-01-30T06:59:06.578Z,9.00
2023-01-30T07:00:06.425Z,7.00
2023-01-30T07:01:06.385Z,13.00
2023-01-30T07:02:06.545Z,12.00
2023-01-30T07:03:06.439Z,21.00
2023-01-30T07:04:06.372Z,10.00
2023-01-30T07:05:06.395Z,23.00
2023-01-30T07:06:06.326Z,29.00
2023-01-30T07:07:07.205Z,31.00
2023-01-30T07:08:06.362Z,29.00
2023-01-30T07:09:06.294Z,29.00
2023-01-30T07:10:08.608Z,27.00
2023-01-30T07:11:06.266Z,27.00
2023-01-30T07:12:06.294Z,26.00
2023-01-30T07:13:06.301Z,29.00
2023-01-30T07:14:07.074Z,27.00
2023-01-30T07:15:06.360Z,20.00
2023-01-30T07:16:06.481Z,10.00
2023-01-30T07:17:06.493Z,28.00
2023-01-30T07:18:06.226Z,50.00
2023-01-30T07:19:06.190Z,56.00
2023-01-30T07:20:06.195Z,49.00
2023-01-30T07:21:06.277Z,47.00
2023-01-30T07:22:06.176Z,51.00
2023-01-30T07:23:06.167Z,53.00
2023-01-30T07:24:06.170Z,49.00
2023-01-30T07:25:06.179Z,46.00
2023-01-30T07:26:06.134Z,50.00
2023-01-30T07:27:06.125Z,55.00
2023-01-30T07:28:06.125Z,50.00
2023-01-30T07:29:06.110Z,48.00
2023-01-30T07:30:06.064Z,41.00
2023-01-30T07:31:06.061Z,39.00
2023-01-30T07:32:06.299Z,32.00
2023-01-30T07:33:06.213Z,29.00
2023-01-30T07:34:06.015Z,34.00
2023-01-30T07:35:06.173Z,33.00
2023-01-30T07:36:05.994Z,28.00
2023-01-30T07:37:06.028Z,70.00
2023-01-30T07:38:06.028Z,74.00
2023-01-30T07:39:06.004Z,75.00
2023-01-30T07:40:06.140Z,81.00
2023-01-30T07:41:06.265Z,79.00
2023-01-30T07:42:06.248Z,76.00
2023-01-30T07:43:06.059Z,106.00
2023-01-30T07:44:05.971Z,105.00
2023-01-30T07:45:06.070Z,117.00
2023-01-30T07:46:05.959Z,126.00
2023-01-30T07:47:06.025Z,125.00
2023-01-30T07:48:06.068Z,154.00
2023-01-30T07:49:06.046Z,164.00
2023-01-30T07:50:05.822Z,185.00
2023-01-30T07:51:05.991Z,157.00
2023-01-30T07:52:05.972Z,121.00
2023-01-30T07:53:05.978Z,124.00
2023-01-30T07:54:06.021Z,138.00
2023-01-30T07:55:05.788Z,166.00
2023-01-30T07:56:05.775Z,147.00
2023-01-30T07:57:05.776Z,143.00
2023-01-30T07:58:05.755Z,135.00
2023-01-30T07:59:05.921Z,144.00
2023-01-30T08:00:05.739Z,182.00
2023-01-30T08:01:06.015Z,238.00
2023-01-30T08:02:05.879Z,351.00
2023-01-30T08:03:05.998Z,448.00
2023-01-30T08:04:05.890Z,543.00
2023-01-30T08:05:06.337Z,664.00
2023-01-30T08:06:06.021Z,789.00
2023-01-30T08:07:05.668Z,920.00
2023-01-30T08:08:05.788Z,1041.00
2023-01-30T08:09:05.783Z,1136.00
2023-01-30T08:10:05.778Z,1206.00
2023-01-30T08:11:05.636Z,1597.00
2023-01-30T08:12:05.873Z,1667.00
2023-01-30T08:13:05.742Z,1025.00
2023-01-30T08:14:05.570Z,6276.00
2023-01-30T08:15:05.574Z,1789.00
2023-01-30T08:16:05.779Z,5808.00
2023-01-30T08:17:05.606Z,6468.00
2023-01-30T08:18:05.733Z,2587.00
2023-01-30T08:19:05.523Z,1887.00
2023-01-30T08:20:05.515Z,1906.00
2023-01-30T08:21:05.511Z,1807.00
2023-01-30T08:22:05.471Z,2364.00
2023-01-30T08:23:05.528Z,2139.00
2023-01-30T08:24:05.699Z,10579.00
2023-01-30T08:25:05.478Z,2425.00
2023-01-30T08:26:05.647Z,7854.00
2023-01-30T08:27:05.616Z,80216.00
2023-01-30T08:28:05.429Z,79545.00
2023-01-30T08:29:05.453Z,78533.00
2023-01-30T08:30:05.778Z,77809.00
2023-01-30T08:31:05.512Z,77891.00
2023-01-30T08:32:05.375Z,82519.00
2023-01-30T08:33:05.390Z,79208.00
2023-01-30T08:34:05.649Z,59690.00
2023-01-30T08:35:05.640Z,80370.00
2023-01-30T08:36:05.622Z,72898.00
2023-01-30T08:37:05.595Z,32616.00
2023-01-30T08:38:05.563Z,18831.00
2023-01-30T08:39:05.545Z,3865.00
2023-01-30T08:40:05.511Z,10019.00
2023-01-30T08:41:05.427Z,63722.00
2023-01-30T08:42:05.321Z,16745.00
2023-01-30T08:43:05.408Z,7796.00
2023-01-30T08:44:05.642Z,6293.00
2023-01-30T08:45:05.252Z,14104.00
2023-01-30T08:46:05.618Z,6636.00
2023-01-30T08:47:05.527Z,16704.00
2023-01-30T08:48:05.491Z,4028.00
2023-01-30T08:49:05.458Z,21075.00
2023-01-30T08:50:05.478Z,12173.00
2023-01-30T08:51:05.360Z,15949.00
2023-01-30T08:52:05.545Z,27696.00
2023-01-30T08:53:05.489Z,11365.00
2023-01-30T08:54:05.425Z,80006.00
2023-01-30T08:55:05.365Z,59527.00
2023-01-30T08:56:05.146Z,7359.00
2023-01-30T08:57:05.327Z,8972.00
2023-01-30T08:58:05.456Z,3818.00
2023-01-30T08:59:05.168Z,1222.00
2023-01-30T09:00:05.335Z,6316.00
2023-01-30T09:01:05.373Z,4307.00
2023-01-30T09:02:05.115Z,4622.00
2023-01-30T09:03:05.108Z,3526.00
2023-01-30T09:04:05.312Z,2568.00
2023-01-30T09:05:05.091Z,3417.00
2023-01-30T09:06:05.189Z,3703.00
2023-01-30T09:07:05.159Z,1668.00
2023-01-30T09:08:05.043Z,3596.00
2023-01-30T09:09:05.209Z,23560.00
2023-01-30T09:10:05.423Z,7720.00
2023-01-30T09:11:05.094Z,5764.00
2023-01-30T09:12:05.013Z,4671.00
2023-01-30T09:13:04.985Z,3670.00
2023-01-30T09:14:05.224Z,1753.00
2023-01-30T09:15:05.055Z,7995.00
2023-01-30T09:16:04.983Z,12528.00
2023-01-30T09:17:05.096Z,5964.00
2023-01-30T09:18:05.073Z,3487.00
2023-01-30T09:19:04.981Z,2228.00
2023-01-30T09:20:05.128Z,1546.00
2023-01-30T09:21:05.058Z,1230.00
2023-01-30T09:22:05.060Z,1508.00
2023-01-30T09:23:04.869Z,917.00
2023-01-30T09:24:05.060Z,1175.00
2023-01-30T09:25:04.902Z,2692.00
2023-01-30T09:26:04.890Z,1509.00
2023-01-30T09:27:04.877Z,2886.00
2023-01-30T09:28:04.845Z,2934.00
2023-01-30T09:29:05.080Z,2078.00
2023-01-30T09:30:05.029Z,2120.00
2023-01-30T09:31:05.095Z,2237.00
2023-01-30T09:32:04.934Z,3111.00
2023-01-30T09:33:05.132Z,2276.00
2023-01-30T09:34:04.980Z,1497.00
2023-01-30T09:35:04.935Z,2089.00
2023-01-30T09:36:04.768Z,2192.00
2023-01-30T09:37:05.270Z,1792.00
2023-01-30T09:38:04.880Z,1452.00
2023-01-30T09:39:04.748Z,1325.00
2023-01-30T09:40:04.998Z,1313.00
2023-01-30T09:41:04.920Z,1223.00
2023-01-30T09:42:04.881Z,1310.00
2023-01-30T09:43:05.090Z,2968.00
2023-01-30T09:44:05.021Z,1158.00
2023-01-30T09:45:04.845Z,3180.00
2023-01-30T09:46:04.991Z,27807.00
2023-01-30T09:47:04.874Z,12335.00
2023-01-30T09:48:04.635Z,6513.00
2023-01-30T09:49:04.615Z,4433.00
2023-01-30T09:50:04.600Z,3425.00
2023-01-30T09:51:04.853Z,2447.00
2023-01-30T09:52:04.790Z,1982.00
2023-01-30T09:53:04.853Z,1717.00
2023-01-30T09:54:04.582Z,1466.00
2023-01-30T09:55:04.741Z,1099.00
2023-01-30T09:56:04.689Z,1326.00
2023-01-30T09:57:04.676Z,13606.00
2023-01-30T09:58:04.721Z,5536.00
2023-01-30T09:59:04.686Z,2985.00
2023-01-30T10:00:04.558Z,1876.00
2023-01-30T10:01:04.527Z,890.00
2023-01-30T10:02:04.472Z,2233.00
2023-01-30T10:03:04.629Z,2690.00
2023-01-30T10:04:04.730Z,1890.00
2023-01-30T10:05:04.648Z,1444.00
2023-01-30T10:06:04.525Z,1006.00
2023-01-30T10:07:04.537Z,829.00
2023-01-30T10:08:04.452Z,1137.00
2023-01-30T10:09:04.421Z,2310.00
2023-01-30T10:10:04.465Z,2353.00
2023-01-30T10:11:10.139Z,2113.00
2023-01-30T10:12:04.646Z,1583.00
2023-01-30T10:13:04.616Z,1143.00
2023-01-30T10:14:04.464Z,1427.00
2023-01-30T10:15:04.486Z,1171.00
2023-01-30T10:16:04.412Z,907.00
2023-01-30T10:17:04.352Z,805.00
2023-01-30T10:18:04.491Z,1165.00
2023-01-30T10:19:04.495Z,1340.00
2023-01-30T10:20:04.536Z,2284.00
2023-01-30T10:21:04.534Z,2034.00
2023-01-30T10:22:04.298Z,1786.00
2023-01-30T10:23:04.549Z,1890.00
2023-01-30T10:24:04.556Z,1804.00
2023-01-30T10:25:04.573Z,2809.00
2023-01-30T10:26:04.329Z,3446.00
2023-01-30T10:27:04.950Z,4448.00
2023-01-30T10:28:04.534Z,3904.00
2023-01-30T10:29:07.607Z,3234.00
2023-01-30T10:30:04.227Z,2619.00
2023-01-30T10:31:04.276Z,2239.00
2023-01-30T10:32:04.491Z,1812.00
2023-01-30T10:33:04.498Z,1385.00
2023-01-30T10:34:04.253Z,1426.00
2023-01-30T10:35:04.261Z,1244.00
2023-01-30T10:36:04.385Z,1278.00
2023-01-30T10:37:04.115Z,1402.00
2023-01-30T10:38:04.224Z,1405.00
2023-01-30T10:39:04.200Z,1316.00
2023-01-30T10:40:04.113Z,1208.00
2023-01-30T10:41:04.372Z,1607.00
2023-01-30T10:42:04.336Z,1814.00
2023-01-30T10:43:04.319Z,1606.00
2023-01-30T10:44:04.380Z,1408.00
2023-01-30T10:45:04.031Z,1093.00
2023-01-30T10:46:04.032Z,964.00
2023-01-30T10:47:04.212Z,1231.00
2023-01-30T10:48:04.820Z,992.00
2023-01-30T10:49:04.000Z,805.00
2023-01-30T10:50:04.186Z,685.00
2023-01-30T10:51:03.962Z,586.00
2023-01-30T10:52:04.180Z,487.00
2023-01-30T10:53:04.064Z,820.00
2023-01-30T10:54:04.367Z,1189.00
2023-01-30T10:55:04.038Z,1275.00
2023-01-30T10:56:04.140Z,1324.00
2023-01-30T10:57:04.266Z,1365.00
2023-01-30T10:58:04.255Z,1082.00
2023-01-30T10:59:03.941Z,912.00
2023-01-30T11:00:04.266Z,1438.00
2023-01-30T11:01:03.985Z,1993.00
2023-01-30T11:02:03.996Z,2216.00
2023-01-30T11:03:03.888Z,2351.00
2023-01-30T11:04:03.912Z,2282.00
2023-01-30T11:05:03.858Z,2917.00
2023-01-30T11:06:03.850Z,2304.00
2023-01-30T11:07:03.817Z,1678.00
2023-01-30T11:08:03.779Z,2157.00
2023-01-30T11:09:03.762Z,4249.00
2023-01-30T11:10:03.812Z,3675.00
2023-01-30T11:11:03.807Z,3017.00
2023-01-30T11:12:03.761Z,2146.00
2023-01-30T11:13:03.728Z,1683.00
2023-01-30T11:14:03.735Z,2221.00
2023-01-30T11:15:03.726Z,1797.00
2023-01-30T11:16:03.777Z,2685.00
2023-01-30T11:17:03.711Z,2458.00
2023-01-30T11:18:27.191Z,1840.00
2023-01-30T11:19:19.778Z,1875.00
2023-01-30T11:20:03.736Z,1593.00
2023-01-30T11:21:03.716Z,1678.00
2023-01-30T11:22:03.716Z,1809.00
2023-01-30T11:23:03.670Z,2002.00
2023-01-30T11:24:03.663Z,1831.00
2023-01-30T11:25:03.640Z,1453.00
2023-01-30T11:26:11.314Z,3415.00
2023-01-30T11:27:03.690Z,3454.00
2023-01-30T11:28:03.580Z,4047.00
2023-01-30T11:29:03.607Z,3625.00
2023-01-30T11:30:03.596Z,3043.00
2023-01-30T11:31:03.631Z,3107.00
2023-01-30T11:32:03.642Z,2880.00
2023-01-30T11:33:03.589Z,3179.00
2023-01-30T11:34:03.579Z,2795.00
2023-01-30T11:35:03.483Z,2199.00
2023-01-30T11:36:04.543Z,2359.00
2023-01-30T11:37:03.505Z,2785.00
2023-01-30T11:38:03.587Z,3006.00
2023-01-30T11:39:03.447Z,2637.00
2023-01-30T11:40:03.457Z,2360.00
2023-01-30T11:41:03.573Z,2774.00
2023-01-30T11:42:03.448Z,2606.00
2023-01-30T11:43:03.427Z,2189.00
2023-01-30T11:44:03.432Z,2215.00
2023-01-30T11:45:16.803Z,4390.00
2023-01-30T11:46:03.458Z,3460.00
2023-01-30T11:47:03.375Z,3492.00
2023-01-30T11:48:03.932Z,3676.00
2023-01-30T11:49:44.481Z,3315.00
2023-01-30T11:50:03.660Z,2541.00
2023-01-30T11:51:03.339Z,3913.00
2023-01-30T11:52:03.389Z,4213.00
2023-01-30T11:53:03.323Z,3302.00
2023-01-30T11:54:03.344Z,5882.00
2023-01-30T11:55:03.312Z,5450.00
2023-01-30T11:56:07.970Z,4493.00
2023-01-30T11:57:03.302Z,3496.00
2023-01-30T11:58:03.321Z,4273.00
2023-01-30T11:59:03.242Z,5182.00
2023-01-30T12:00:03.289Z,5330.00
2023-01-30T12:01:03.265Z,4714.00
2023-01-30T12:02:03.291Z,4393.00
2023-01-30T12:03:03.353Z,2874.00
2023-01-30T12:04:03.229Z,2124.00
2023-01-30T12:05:03.202Z,2415.00
2023-01-30T12:06:03.191Z,1897.00
2023-01-30T12:07:03.205Z,2116.00
2023-01-30T12:08:03.161Z,1801.00
2023-01-30T12:09:03.213Z,2879.00
2023-01-30T12:10:03.126Z,4186.00
2023-01-30T12:11:03.272Z,3469.00
2023-01-30T12:12:03.263Z,4926.00
2023-01-30T12:13:03.124Z,4745.00
2023-01-30T12:14:03.172Z,3519.00
2023-01-30T12:15:03.095Z,3977.00
2023-01-30T12:16:03.318Z,2980.00
2023-01-30T12:17:03.332Z,3918.00
2023-01-30T12:18:03.224Z,4667.00
2023-01-30T12:19:03.071Z,4564.00
2023-01-30T12:20:03.217Z,4058.00
2023-01-30T12:21:03.193Z,3614.00
2023-01-30T12:22:03.113Z,5475.00
2023-01-30T12:23:03.044Z,4597.00
2023-01-30T12:24:03.127Z,5400.00
2023-01-30T12:25:03.029Z,4836.00
2023-01-30T12:26:03.088Z,4522.00
2023-01-30T12:27:03.202Z,3254.00
2023-01-30T12:28:03.179Z,3834.00
2023-01-30T12:29:03.141Z,4106.00
2023-01-30T12:30:03.130Z,5022.00
2023-01-30T12:31:03.224Z,4368.00
2023-01-30T12:32:02.924Z,3812.00
2023-01-30T12:33:02.994Z,3363.00
2023-01-30T12:34:03.104Z,2862.00
2023-01-30T12:35:03.088Z,2841.00
2023-01-30T12:36:03.197Z,3941.00
2023-01-30T12:37:03.195Z,3867.00
2023-01-30T12:38:03.162Z,3209.00
2023-01-30T12:39:03.033Z,3286.00
2023-01-30T12:40:03.031Z,2783.00
2023-01-30T12:41:03.120Z,2796.00
2023-01-30T12:42:02.977Z,2513.00
2023-01-30T12:43:02.963Z,2181.00
2023-01-30T12:44:02.955Z,1932.00
2023-01-30T12:45:02.821Z,2210.00
2023-01-30T12:46:03.079Z,1912.00
2023-01-30T12:47:02.991Z,1977.00